createdAt,value
2022-08-11T00:03:44.049Z,19.10
2022-08-11T00:08:50.133Z,18.11
2022-08-11T00:13:53.519Z,18.70
2022-08-11T00:19:00.183Z,19.07
2022-08-11T00:24:03.345Z,19.37
2022-08-11T00:29:10.253Z,18.98
2022-08-11T00:34:13.137Z,17.52
2022-08-11T00:39:17.942Z,16.99
2022-08-11T00:44:42.326Z,17.90
2022-08-11T00:50:10.105Z,18.26
2022-08-11T00:55:42.888Z,18.50
2022-08-11T01:01:23.460Z,18.63
2022-08-11T01:06:49.181Z,18.05
2022-08-11T01:12:18.814Z,16.94
2022-08-11T01:17:26.753Z,17.70
2022-08-11T01:23:18.027Z,18.09
2022-08-11T01:29:04.390Z,18.31
2022-08-11T01:34:48.270Z,18.31
2022-08-11T01:40:22.919Z,18.32
2022-08-11T01:45:42.955Z,18.27
2022-08-11T01:51:22.358Z,18.35
2022-08-11T01:56:36.472Z,18.21
2022-08-11T02:01:57.917Z,17.97
2022-08-11T02:07:38.431Z,17.89
2022-08-11T02:12:52.574Z,17.96
2022-08-11T02:18:48.874Z,18.06
2022-08-11T02:24:04.953Z,18.16
2022-08-11T02:29:21.573Z,18.11
2022-08-11T02:35:00.286Z,18.03
2022-08-11T02:40:21.364Z,17.90
2022-08-11T02:45:54.309Z,17.69
2022-08-11T02:51:21.150Z,17.54
2022-08-11T02:56:49.856Z,17.35
2022-08-11T03:02:00.805Z,17.33
2022-08-11T03:07:29.166Z,17.33
2022-08-11T03:13:15.670Z,16.41
2022-08-11T03:18:36.748Z,15.27
2022-08-11T03:24:21.343Z,16.01
2022-08-11T03:29:33.627Z,16.52
2022-08-11T03:34:38.949Z,16.76
2022-08-11T03:39:58.117Z,16.94
2022-08-11T03:45:12.330Z,17.05
2022-08-11T03:50:38.971Z,16.96
2022-08-11T03:56:05.624Z,17.09
2022-08-11T04:01:38.784Z,17.27
2022-08-11T04:07:02.173Z,17.24
2022-08-11T04:12:36.578Z,17.34
2022-08-11T04:18:16.944Z,17.60
2022-08-11T04:24:35.916Z,18.79
2022-08-11T04:30:02.027Z,20.67
2022-08-11T04:35:32.821Z,21.85
2022-08-11T04:40:43.446Z,23.13
2022-08-11T04:46:00.713Z,24.23
2022-08-11T04:52:00.101Z,25.01
2022-08-11T04:57:33.630Z,25.59
2022-08-11T05:03:27.621Z,25.81
2022-08-11T05:08:47.603Z,25.77
2022-08-11T05:14:11.068Z,25.34
2022-08-11T05:19:39.434Z,23.53
2022-08-11T05:25:07.596Z,21.55
2022-08-11T05:30:30.691Z,20.16
2022-08-11T05:36:02.227Z,19.20
2022-08-11T05:41:25.680Z,19.29
2022-08-11T05:46:47.796Z,20.35
2022-08-11T05:52:12.968Z,19.70
2022-08-11T05:57:38.600Z,19.35
2022-08-11T06:02:55.692Z,19.36
2022-08-11T06:08:05.222Z,19.61
2022-08-11T06:13:08.579Z,21.03
2022-08-11T06:18:13.123Z,21.02
2022-08-11T06:23:20.062Z,20.77
2022-08-11T06:28:31.272Z,20.79
2022-08-11T06:33:43.549Z,20.96
2022-08-11T06:39:21.147Z,21.14
2022-08-11T06:44:29.442Z,21.40
2022-08-11T06:50:02.735Z,21.66
2022-08-11T06:55:55.718Z,21.93
2022-08-11T07:00:41.237Z,22.15
2022-08-11T07:06:20.833Z,22.32
2022-08-11T07:12:32.951Z,22.49
2022-08-11T07:17:50.540Z,22.71
2022-08-11T07:23:17.875Z,22.83
2022-08-11T07:28:44.587Z,22.97
2022-08-11T07:34:07.442Z,23.16
2022-08-11T07:39:20.521Z,23.35
2022-08-11T07:44:27.375Z,23.57
2022-08-11T07:49:54.421Z,23.67
2022-08-11T07:55:03.654Z,23.77
2022-08-11T08:00:30.023Z,23.81
2022-08-11T08:05:51.051Z,23.85
2022-08-11T08:11:13.377Z,23.97
2022-08-11T08:16:34.587Z,23.90
2022-08-11T08:21:38.879Z,23.94
2022-08-11T08:26:58.562Z,23.94
2022-08-11T08:32:02.341Z,24.11
2022-08-11T08:37:44.913Z,24.34
2022-08-11T08:42:33.046Z,24.63
2022-08-11T08:47:43.538Z,24.79
2022-08-11T08:53:10.386Z,25.00
2022-08-11T08:58:21.782Z,25.23
2022-08-11T09:03:41.806Z,25.31
2022-08-11T09:08:46.980Z,25.43
2022-08-11T09:14:05.701Z,25.53
2022-08-11T09:19:10.156Z,25.81
2022-08-11T09:24:30.674Z,25.97
2022-08-11T09:29:39.073Z,26.03
2022-08-11T09:34:49.214Z,26.09
2022-08-11T09:40:15.484Z,26.34
2022-08-11T09:45:17.869Z,26.54
2022-08-11T09:50:20.828Z,26.70
2022-08-11T09:55:25.593Z,26.86
2022-08-11T10:00:30.819Z,27.01
2022-08-11T10:05:52.127Z,26.81
2022-08-11T10:10:56.270Z,26.40
2022-08-11T10:16:15.690Z,26.31
2022-08-11T10:21:38.980Z,26.37
2022-08-11T10:26:55.196Z,26.58
2022-08-11T10:32:19.653Z,26.36
2022-08-11T10:38:09.113Z,26.15
2022-08-11T10:43:02.968Z,26.28
2022-08-11T10:48:15.390Z,26.77
2022-08-11T10:53:40.384Z,26.78
2022-08-11T10:58:49.178Z,26.98
2022-08-11T11:03:58.609Z,27.12
2022-08-11T11:09:05.261Z,27.08
2022-08-11T11:14:27.259Z,27.37
2022-08-11T11:19:29.747Z,27.53
2022-08-11T11:24:41.664Z,27.74
2022-08-11T11:29:49.488Z,27.92
2022-08-11T11:35:14.964Z,27.96
2022-08-11T11:40:21.026Z,28.10
2022-08-11T11:50:52.897Z,27.90
2022-08-11T11:56:39.612Z,27.92
2022-08-11T12:02:12.406Z,27.80
2022-08-11T12:07:56.724Z,27.29
2022-08-11T12:13:38.302Z,27.41
2022-08-11T12:18:50.071Z,27.83
2022-08-11T12:24:17.554Z,28.20
2022-08-11T12:29:40.010Z,28.48
2022-08-11T12:34:46.555Z,28.47
2022-08-11T12:40:42.450Z,27.68
2022-08-11T12:45:41.826Z,26.82
2022-08-11T12:51:23.185Z,26.78
2022-08-11T12:56:56.424Z,27.21
2022-08-11T13:02:20.897Z,27.37
2022-08-11T13:07:23.893Z,27.59
2022-08-11T13:12:47.052Z,27.86
2022-08-11T13:17:51.445Z,27.87
2022-08-11T13:22:56.754Z,27.85
2022-08-11T13:28:02.109Z,27.92
2022-08-11T13:33:11.268Z,28.10
2022-08-11T13:38:20.467Z,28.32
2022-08-11T13:43:30.426Z,28.55
2022-08-11T13:48:46.542Z,28.33
2022-08-11T13:53:52.843Z,27.68
2022-08-11T13:59:04.145Z,26.97
2022-08-11T14:04:30.947Z,26.99
2022-08-11T14:09:41.067Z,27.18
2022-08-11T14:14:49.415Z,27.41
2022-08-11T14:19:59.691Z,27.57
2022-08-11T14:25:02.673Z,27.82
2022-08-11T14:30:31.563Z,28.03
2022-08-11T14:35:45.587Z,28.06
2022-08-11T14:41:12.973Z,27.63
2022-08-11T14:46:47.241Z,26.95
2022-08-11T14:51:54.654Z,26.79
2022-08-11T14:56:59.827Z,26.94
2022-08-11T15:02:22.309Z,27.10
2022-08-11T15:07:29.933Z,27.22
2022-08-11T15:12:37.338Z,27.44
2022-08-11T15:17:43.417Z,27.51
2022-08-11T15:23:07.913Z,27.51
2022-08-11T15:28:29.033Z,27.51
2022-08-11T15:33:54.389Z,27.42
2022-08-11T15:39:19.549Z,27.19
2022-08-11T15:45:06.004Z,27.10
2022-08-11T15:50:16.007Z,27.06
2022-08-11T15:55:19.717Z,27.03
2022-08-11T16:00:43.630Z,26.98
2022-08-11T16:05:53.158Z,26.86
2022-08-11T16:11:09.697Z,26.82
2022-08-11T16:16:16.470Z,26.80
2022-08-11T16:21:33.799Z,26.78
2022-08-11T16:27:10.385Z,26.67
2022-08-11T16:32:24.479Z,26.51
2022-08-11T16:37:57.813Z,26.40
2022-08-11T16:43:25.214Z,26.37
2022-08-11T16:48:38.240Z,26.36
2022-08-11T16:54:04.121Z,26.44
2022-08-11T16:59:17.904Z,27.16
2022-08-11T17:04:43.287Z,28.12
2022-08-11T17:10:39.370Z,28.71
2022-08-11T17:15:50.848Z,28.46
2022-08-11T17:20:56.201Z,27.99
2022-08-11T17:26:03.209Z,27.56
2022-08-11T17:31:27.607Z,27.15
2022-08-11T17:36:29.745Z,26.80
2022-08-11T17:41:50.432Z,26.36
2022-08-11T17:47:12.042Z,25.80
2022-08-11T17:52:35.525Z,25.12
2022-08-11T17:57:57.372Z,24.14
2022-08-11T18:03:18.124Z,23.31
2022-08-11T18:08:39.325Z,22.70
2022-08-11T18:14:03.053Z,22.27
2022-08-11T18:19:27.934Z,21.91
2022-08-11T18:24:56.030Z,21.60
2022-08-11T18:30:19.601Z,21.35
2022-08-11T18:35:42.018Z,21.15
2022-08-11T18:41:03.241Z,20.99
2022-08-11T18:46:26.117Z,20.88
2022-08-11T18:51:46.873Z,20.77
2022-08-11T18:57:11.509Z,20.65
2022-08-11T19:02:48.510Z,20.56
2022-08-11T19:08:14.271Z,20.46
2022-08-11T19:13:43.309Z,20.36
2022-08-11T19:19:05.629Z,20.27
2022-08-11T19:24:27.078Z,20.21
2022-08-11T19:30:07.472Z,20.14
2022-08-11T19:35:30.366Z,20.03
2022-08-11T19:40:51.988Z,19.85
2022-08-11T19:46:16.899Z,19.67
2022-08-11T19:51:38.625Z,19.46
2022-08-11T19:57:00.654Z,19.22
2022-08-11T20:02:21.735Z,18.92
2022-08-11T20:07:43.421Z,18.66
2022-08-11T20:13:04.613Z,18.46
2022-08-11T20:18:25.246Z,18.31
2022-08-11T20:23:49.630Z,18.16
2022-08-11T20:29:12.519Z,17.99
2022-08-11T20:34:42.277Z,17.82
2022-08-11T20:40:08.328Z,17.63
2022-08-11T20:45:33.612Z,17.40
2022-08-11T20:50:57.909Z,17.87
2022-08-11T20:56:19.501Z,19.60
2022-08-11T21:01:41.448Z,19.84
2022-08-11T21:07:05.701Z,18.62
2022-08-11T21:18:00.832Z,17.25
2022-08-11T21:23:31.100Z,17.35
2022-08-11T21:28:57.916Z,18.66
2022-08-11T21:34:19.717Z,19.31
2022-08-11T21:39:40.990Z,18.97
2022-08-11T21:45:02.927Z,17.52
2022-08-11T21:50:25.178Z,17.86
2022-08-11T21:55:49.981Z,18.73
2022-08-11T22:01:12.580Z,19.16
2022-08-11T22:06:36.592Z,19.40
2022-08-11T22:12:33.709Z,18.71
2022-08-11T22:17:38.650Z,17.31
2022-08-11T22:23:01.503Z,16.93
2022-08-11T22:28:24.423Z,18.02
2022-08-11T22:33:51.731Z,18.14
2022-08-11T22:39:28.092Z,17.45
2022-08-11T22:44:52.319Z,18.14
2022-08-11T22:50:20.870Z,18.65
2022-08-11T22:55:46.301Z,18.88
2022-08-11T23:01:09.888Z,19.00
2022-08-11T23:06:34.067Z,18.66
2022-08-11T23:12:07.229Z,16.94
2022-08-11T23:17:33.307Z,16.59
2022-08-11T23:22:56.650Z,17.74
2022-08-11T23:28:20.616Z,18.38
2022-08-11T23:33:45.729Z,18.70
2022-08-11T23:39:06.287Z,18.97
2022-08-11T23:44:27.597Z,19.13
2022-08-11T23:49:48.778Z,19.24
2022-08-11T23:55:11.628Z,18.66
